createdAt,value
2023-05-06T00:00:04.232Z,1.11
2023-05-06T00:01:04.557Z,0.74
2023-05-06T00:02:04.594Z,0.72
2023-05-06T00:03:04.168Z,1
2023-05-06T00:04:04.654Z,1.46
2023-05-06T00:05:04.585Z,1.49
2023-05-06T00:06:04.868Z,0.85
2023-05-06T00:07:04.157Z,2.25
2023-05-06T00:08:04.397Z,0.93
2023-05-06T00:09:04.866Z,0.76
2023-05-06T00:10:04.100Z,1.25
2023-05-06T00:11:04.146Z,1.14
2023-05-06T00:12:04.397Z,0.67
2023-05-06T00:13:04.810Z,0.86
2023-05-06T00:14:04.832Z,0.88
2023-05-06T00:15:04.013Z,1.21
2023-05-06T00:16:04.308Z,0.67
2023-05-06T00:17:04.509Z,0.92
2023-05-06T00:18:04.794Z,0.69
2023-05-06T00:19:03.883Z,1.43
2023-05-06T00:20:04.160Z,1.43
2023-05-06T00:21:04.334Z,1.32
2023-05-06T00:22:04.797Z,1.32
2023-05-06T00:23:04.001Z,1.29
2023-05-06T00:24:04.401Z,0.86
2023-05-06T00:25:04.567Z,1.31
2023-05-06T00:26:04.018Z,1.88
2023-05-06T00:27:04.111Z,2.37
2023-05-06T00:28:04.268Z,2.27
2023-05-06T00:29:04.559Z,1.44
2023-05-06T00:34:04.931Z,1.42
2023-05-06T00:35:04.056Z,0.85
2023-05-06T00:36:04.372Z,1.46
2023-05-06T00:37:04.677Z,1.31
2023-05-06T00:38:03.648Z,1.17
2023-05-06T00:39:04.239Z,1.7
2023-05-06T00:40:04.555Z,1.04
2023-05-06T00:41:04.507Z,0.85
2023-05-06T00:46:04.072Z,1.22
2023-05-06T00:47:04.216Z,1.42
2023-05-06T00:48:04.654Z,1.46
2023-05-06T00:49:03.974Z,1.04
2023-05-06T00:50:04.251Z,0.67
2023-05-06T00:51:04.469Z,1.43
2023-05-06T00:52:04.683Z,1.89
2023-05-06T00:53:03.916Z,1.02
2023-05-06T00:54:04.259Z,2.47
2023-05-06T00:55:04.817Z,0.82
2023-05-06T00:56:04.181Z,1.05
2023-05-06T00:57:04.527Z,1.42
2023-05-06T00:58:04.782Z,1.31
2023-05-06T00:59:03.877Z,1.33
2023-05-06T01:00:04.154Z,0.89
2023-05-06T01:01:04.619Z,0.89
2023-05-06T01:02:04.610Z,0.81
2023-05-06T01:03:03.932Z,0.88
2023-05-06T01:04:04.264Z,0.88
2023-05-06T01:05:04.332Z,1.63
2023-05-06T01:06:04.267Z,1.17
2023-05-06T01:07:04.636Z,1.16
2023-05-06T01:08:03.708Z,1.12
2023-05-06T01:09:04.185Z,1.41
2023-05-06T01:10:04.517Z,1.37
2023-05-06T01:11:04.748Z,2.01
2023-05-06T01:12:04.014Z,0.89
2023-05-06T01:13:04.468Z,1.33
2023-05-06T01:14:04.630Z,1.03
2023-05-06T01:15:03.958Z,1.14
2023-05-06T01:16:03.985Z,1.13
2023-05-06T01:17:04.513Z,1.42
2023-05-06T01:18:04.693Z,0.58
2023-05-06T01:20:04.162Z,1.11
2023-05-06T01:21:04.433Z,1.44
2023-05-06T01:22:04.590Z,0.84
2023-05-06T01:23:04.863Z,1.18
2023-05-06T01:24:03.907Z,1.16
2023-05-06T01:25:04.493Z,0.81
2023-05-06T01:26:04.370Z,0.95
2023-05-06T01:27:04.789Z,1.32
2023-05-06T01:31:04.042Z,1.15
2023-05-06T01:33:03.960Z,1.21
2023-05-06T01:34:04.118Z,1.79
2023-05-06T01:35:04.455Z,1.09
2023-05-06T01:36:04.401Z,1.29
2023-05-06T01:37:04.783Z,1.25
2023-05-06T01:38:04.107Z,1.42
2023-05-06T01:39:04.330Z,0.98
2023-05-06T01:40:04.514Z,0.95
2023-05-06T01:41:04.490Z,0.82
2023-05-06T01:42:04.898Z,1.11
2023-05-06T01:43:04.134Z,1.11
2023-05-06T01:44:04.276Z,1.41
2023-05-06T01:45:04.934Z,1.52
2023-05-06T01:46:04.271Z,2.13
2023-05-06T01:47:04.308Z,1.52
2023-05-06T01:49:04.426Z,1.35
2023-05-06T01:50:04.389Z,1.16
2023-05-06T01:51:04.626Z,1.99
2023-05-06T01:56:03.721Z,1.54
2023-05-06T01:57:04.221Z,1.32
2023-05-06T01:58:04.664Z,1.24
2023-05-06T01:59:03.766Z,1.27
2023-05-06T02:00:04.101Z,1.12
2023-05-06T02:01:04.554Z,1.34
2023-05-06T02:02:04.432Z,1.37
2023-05-06T02:06:04.441Z,1.27
2023-05-06T02:07:04.744Z,1.51
2023-05-06T02:08:04.026Z,1.12
2023-05-06T02:13:03.962Z,0.99
2023-05-06T02:14:04.230Z,1.68
2023-05-06T02:15:04.561Z,1.19
2023-05-06T02:16:03.903Z,1.48
2023-05-06T02:17:04.206Z,1.69
2023-05-06T02:18:04.344Z,1.44
2023-05-06T02:19:04.857Z,1.59
2023-05-06T02:20:04.067Z,2.57
2023-05-06T02:21:04.333Z,1.32
2023-05-06T02:22:04.557Z,1.16
2023-05-06T02:23:03.736Z,2.01
2023-05-06T02:24:03.972Z,2.05
2023-05-06T02:25:04.313Z,1.32
2023-05-06T02:26:04.466Z,1.74
2023-05-06T02:27:04.974Z,1.82
2023-05-06T02:28:04.110Z,1.65
2023-05-06T02:29:04.385Z,1.82
2023-05-06T02:30:04.619Z,1.52
2023-05-06T02:35:04.825Z,1.89
2023-05-06T02:36:04.033Z,1.21
2023-05-06T02:37:04.379Z,1.08
2023-05-06T02:38:04.595Z,1.22
2023-05-06T02:39:04.769Z,1.33
2023-05-06T02:40:04.139Z,1.13
2023-05-06T02:41:04.236Z,1.68
2023-05-06T02:42:04.439Z,1.29
2023-05-06T02:43:04.774Z,1.62
2023-05-06T02:44:04.030Z,1.08
2023-05-06T02:45:04.076Z,1.99
2023-05-06T02:46:04.500Z,1.53
2023-05-06T02:47:04.735Z,1.58
2023-05-06T02:48:04.152Z,1.83
2023-05-06T02:49:04.163Z,1.94
2023-05-06T02:50:04.440Z,1.89
2023-05-06T02:51:04.606Z,0.99
2023-05-06T02:52:04.088Z,1.1
2023-05-06T02:53:04.221Z,1.74
2023-05-06T02:54:04.562Z,1.74
2023-05-06T02:55:04.040Z,1.34
2023-05-06T02:56:04.094Z,1.39
2023-05-06T02:57:04.410Z,1.16
2023-05-06T02:58:04.538Z,2.06
2023-05-06T02:59:04.013Z,1.34
2023-05-06T03:00:04.121Z,1.49
2023-05-06T03:01:03.863Z,1.99
2023-05-06T03:02:04.246Z,2.41
2023-05-06T03:03:04.732Z,1.38
2023-05-06T03:04:04.862Z,1.51
2023-05-06T03:05:03.931Z,1.81
2023-05-06T03:06:04.488Z,1.15
2023-05-06T03:07:04.641Z,1.75
2023-05-06T03:08:03.795Z,2.08
2023-05-06T03:09:04.296Z,2.05
2023-05-06T03:10:04.487Z,2.26
2023-05-06T03:11:03.703Z,1.13
2023-05-06T03:12:04.009Z,1.29
2023-05-06T03:13:04.469Z,1.54
2023-05-06T03:15:04.722Z,1.48
2023-05-06T03:16:04.040Z,2.06
2023-05-06T03:17:04.301Z,1.49
2023-05-06T03:18:04.702Z,2.1
2023-05-06T03:19:04.713Z,1.72
2023-05-06T03:20:04.175Z,1.69
2023-05-06T03:21:04.585Z,1.69
2023-05-06T03:22:04.338Z,1.92
2023-05-06T03:23:04.835Z,1.67
2023-05-06T03:24:03.881Z,1.92
2023-05-06T03:25:04.288Z,1.92
2023-05-06T03:26:04.580Z,1.55
2023-05-06T03:27:03.932Z,1.36
2023-05-06T03:28:04.279Z,2.15
2023-05-06T03:29:04.542Z,1.58
2023-05-06T03:30:04.754Z,1.11
2023-05-06T03:31:03.904Z,1.39
2023-05-06T03:32:04.319Z,2.25
2023-05-06T03:33:04.499Z,2.01
2023-05-06T03:34:04.834Z,2.02
2023-05-06T03:35:03.659Z,1.9
2023-05-06T03:36:04.221Z,1.61
2023-05-06T03:37:04.602Z,1.51
2023-05-06T03:38:04.894Z,1.99
2023-05-06T03:39:04.021Z,2.42
2023-05-06T03:40:04.265Z,1.8
2023-05-06T03:41:04.248Z,2.02
2023-05-06T03:42:05.549Z,2.09
2023-05-06T03:43:04.665Z,2.06
2023-05-06T03:44:04.231Z,1.91
2023-05-06T03:45:04.743Z,2.02
2023-05-06T03:46:03.793Z,1.86
2023-05-06T03:47:04.099Z,1.18
2023-05-06T03:48:04.599Z,1.88
2023-05-06T03:51:03.976Z,1.29
2023-05-06T03:52:04.312Z,2.58
2023-05-06T03:53:04.724Z,1.72
2023-05-06T03:54:03.740Z,1.29
2023-05-06T03:55:04.063Z,1.9
2023-05-06T03:56:04.546Z,2.49
2023-05-06T03:57:03.863Z,2.08
2023-05-06T03:58:04.104Z,2.24
2023-05-06T03:59:04.678Z,1.58
2023-05-06T04:00:04.037Z,1.32
2023-05-06T04:01:04.293Z,1.35
2023-05-06T04:02:04.504Z,1.64
2023-05-06T04:03:04.041Z,1.62
2023-05-06T04:04:04.427Z,2.04
2023-05-06T04:05:04.539Z,1.64
2023-05-06T04:06:04.949Z,2.09
2023-05-06T04:07:03.980Z,1.69
2023-05-06T04:08:04.338Z,2.47
2023-05-06T04:09:04.451Z,2.3
2023-05-06T04:10:03.419Z,2.23
2023-05-06T04:11:04.588Z,2.23
2023-05-06T04:12:04.720Z,2.52
2023-05-06T04:13:04.086Z,1.94
2023-05-06T04:14:04.082Z,1.94
2023-05-06T04:15:04.610Z,1.99
2023-05-06T04:16:04.180Z,2.83
2023-05-06T04:17:04.282Z,1.9
2023-05-06T04:18:04.693Z,1.62
2023-05-06T04:19:06.306Z,2.06
2023-05-06T04:20:04.312Z,1.96
2023-05-06T04:21:04.417Z,2.68
2023-05-06T04:22:04.729Z,1.78
2023-05-06T04:23:03.899Z,1.82
2023-05-06T04:24:04.344Z,2.51
2023-05-06T04:25:04.484Z,2.39
2023-05-06T04:26:03.770Z,1.77
2023-05-06T04:27:04.927Z,2.14
2023-05-06T04:28:03.793Z,2.77
2023-05-06T04:29:04.072Z,2.98
2023-05-06T04:30:04.550Z,1.77
2023-05-06T04:31:04.349Z,2.19
2023-05-06T04:32:04.662Z,2.19
2023-05-06T04:33:04.723Z,1.67
2023-05-06T04:35:04.465Z,2.84
2023-05-06T04:36:04.534Z,2.11
2023-05-06T04:37:04.740Z,2.64
2023-05-06T04:38:04.781Z,1.49
2023-05-06T04:39:04.044Z,2.97
2023-05-06T04:40:04.212Z,1.74
2023-05-06T04:44:03.858Z,1.68
2023-05-06T04:45:04.067Z,3.54
2023-05-06T04:46:04.554Z,1.78
2023-05-06T04:47:04.772Z,1.8
2023-05-06T04:48:03.521Z,2.41
2023-05-06T04:49:03.732Z,2.11
2023-05-06T04:50:04.069Z,2.44
2023-05-06T04:51:03.878Z,2.62
2023-05-06T04:52:04.270Z,2
2023-05-06T04:53:04.367Z,2.46
2023-05-06T04:54:04.750Z,2.62
2023-05-06T04:55:04.084Z,1.74
2023-05-06T04:59:03.765Z,2.57
2023-05-06T05:00:04.482Z,2.59
2023-05-06T05:01:04.582Z,2.59
2023-05-06T05:02:04.764Z,1.81
2023-05-06T05:03:04.293Z,1.81
2023-05-06T05:04:04.375Z,2.22
2023-05-06T05:05:04.694Z,2.16
2023-05-06T05:06:03.992Z,1.72
2023-05-06T05:07:04.202Z,2.07
2023-05-06T05:08:04.384Z,1.8
2023-05-06T05:09:04.562Z,3.64
2023-05-06T05:10:04.097Z,3.22
2023-05-06T05:11:04.269Z,2.67
2023-05-06T05:12:04.595Z,2.66
2023-05-06T05:13:04.741Z,2.3
2023-05-06T05:14:03.789Z,2.35
2023-05-06T05:15:04.357Z,2.42
2023-05-06T05:17:04.479Z,2.25
2023-05-06T05:18:04.849Z,3.69
2023-05-06T05:19:04.648Z,2.55
2023-05-06T05:20:04.456Z,2.34
2023-05-06T05:21:03.988Z,1.59
2023-05-06T05:22:04.384Z,2.47
2023-05-06T05:23:04.637Z,1.82
2023-05-06T05:24:04.026Z,2.44
2023-05-06T05:25:05.629Z,1.82
2023-05-06T05:26:04.469Z,1.59
2023-05-06T05:27:04.815Z,1.61
2023-05-06T05:28:03.724Z,2.02
2023-05-06T05:29:04.332Z,1.67
2023-05-06T05:30:04.490Z,1.72
2023-05-06T05:31:04.705Z,2.26
2023-05-06T05:32:03.982Z,1.95
2023-05-06T05:33:04.281Z,1.45
2023-05-06T05:35:04.607Z,1.92
2023-05-06T05:36:03.973Z,1.89
2023-05-06T05:37:04.066Z,1.88
2023-05-06T05:38:04.263Z,2.29
2023-05-06T05:39:04.346Z,2.67
2023-05-06T05:40:04.046Z,3.29
2023-05-06T05:41:04.257Z,1.97
2023-05-06T05:42:04.621Z,2.54
2023-05-06T05:43:03.721Z,2.19
2023-05-06T05:44:04.160Z,2.18
2023-05-06T05:45:04.691Z,1.33
2023-05-06T05:46:04.086Z,2.76
2023-05-06T05:47:04.364Z,2.19
2023-05-06T05:48:04.979Z,2.59
2023-05-06T05:49:03.777Z,1.93
2023-05-06T05:50:04.312Z,2.28
2023-05-06T05:51:04.471Z,2.72
2023-05-06T05:52:04.663Z,2.72
2023-05-06T05:57:04.104Z,2.43
2023-05-06T05:58:04.415Z,1.8
2023-05-06T05:59:04.568Z,2.16
2023-05-06T06:00:05.043Z,2.02
2023-05-06T06:01:04.015Z,2.36
2023-05-06T06:02:04.206Z,3.22
2023-05-06T06:03:04.660Z,2.99
2023-05-06T06:04:05.261Z,1.89
2023-05-06T06:05:03.912Z,2.75
2023-05-06T06:06:04.199Z,2.58
2023-05-06T06:07:04.541Z,2.81
2023-05-06T06:08:04.115Z,2.43
2023-05-06T06:09:04.126Z,2.71
2023-05-06T06:10:04.247Z,1.98
2023-05-06T06:11:04.282Z,2.45
2023-05-06T06:12:04.613Z,2.51
2023-05-06T06:13:03.666Z,2.85
2023-05-06T06:14:03.909Z,2.68
2023-05-06T06:15:04.572Z,3.59
2023-05-06T06:16:04.377Z,2.58
2023-05-06T06:18:04.237Z,2.41
2023-05-06T06:19:04.352Z,2.44
2023-05-06T06:20:04.631Z,3.42
2023-05-06T06:21:04.477Z,2.2
2023-05-06T06:26:04.534Z,2.98
2023-05-06T06:27:04.774Z,3.48
2023-05-06T06:28:04.211Z,2.22
2023-05-06T06:29:04.609Z,2.72
2023-05-06T06:30:04.881Z,3.95
2023-05-06T06:31:04.113Z,2.34
2023-05-06T06:32:04.466Z,2.34
2023-05-06T06:33:04.565Z,2.92
2023-05-06T06:34:04.749Z,1.68
2023-05-06T06:35:04.126Z,1.54
2023-05-06T06:36:04.225Z,2.59
2023-05-06T06:37:04.978Z,2.8
2023-05-06T06:38:04.534Z,1.91
2023-05-06T06:39:04.837Z,3.36
2023-05-06T06:40:04.148Z,2.25
2023-05-06T06:41:04.225Z,2.63
2023-05-06T06:42:04.500Z,2.38
2023-05-06T06:43:04.572Z,2.31
2023-05-06T06:44:04.201Z,3
2023-05-06T06:45:04.315Z,2.82
2023-05-06T06:46:04.457Z,2.37
2023-05-06T06:48:04.806Z,2.64
2023-05-06T06:49:03.967Z,1.64
2023-05-06T06:50:04.092Z,2.09
2023-05-06T06:51:04.559Z,2.44
2023-05-06T06:52:03.740Z,2.46
2023-05-06T06:53:05.539Z,2.95
2023-05-06T06:54:03.868Z,2.26
2023-05-06T06:55:04.287Z,3.2
2023-05-06T06:57:04.591Z,2.68
2023-05-06T06:58:03.919Z,2.42
2023-05-06T06:59:04.093Z,2.72
2023-05-06T07:00:04.342Z,2.16
2023-05-06T07:01:04.659Z,2.68
2023-05-06T07:02:04.693Z,3.39
2023-05-06T07:03:04.018Z,3.02
2023-05-06T07:04:05.964Z,3.51
2023-05-06T07:05:04.461Z,2.59
2023-05-06T07:06:04.704Z,2.56
2023-05-06T07:07:04.952Z,2.56
2023-05-06T07:10:04.690Z,2.56
2023-05-06T07:11:04.464Z,2.16
2023-05-06T07:12:04.749Z,2.74
2023-05-06T07:13:04.884Z,2.74
2023-05-06T07:14:04.147Z,2.68
2023-05-06T07:15:04.474Z,2.33
2023-05-06T07:16:04.672Z,3.7
2023-05-06T07:17:04.052Z,3.77
2023-05-06T07:18:04.490Z,2.69
2023-05-06T07:19:04.683Z,1.92
2023-05-06T07:20:04.071Z,3.95
2023-05-06T07:21:04.235Z,3.77
2023-05-06T07:22:04.358Z,2.18
2023-05-06T07:23:04.627Z,2.01
2023-05-06T07:24:04.739Z,3.7
2023-05-06T07:25:03.966Z,2.85
2023-05-06T07:26:04.135Z,3.21
2023-05-06T07:27:04.709Z,2.95
2023-05-06T07:28:03.989Z,3.05
2023-05-06T07:29:04.123Z,3.24
2023-05-06T07:30:04.487Z,1.98
2023-05-06T07:31:04.718Z,2.88
2023-05-06T07:32:04.036Z,2.59
2023-05-06T07:33:04.202Z,3.58
2023-05-06T07:34:04.395Z,3.71
2023-05-06T07:35:04.748Z,2.77
2023-05-06T07:36:04.832Z,4.19
2023-05-06T07:38:04.363Z,3.75
2023-05-06T07:39:04.722Z,2.86
2023-05-06T07:40:04.692Z,3.25
2023-05-06T07:41:04.694Z,3.19
2023-05-06T07:43:04.287Z,3.2
2023-05-06T07:44:04.331Z,2.62
2023-05-06T07:45:04.711Z,2.53
2023-05-06T07:46:03.899Z,3.3
2023-05-06T07:47:04.369Z,3.19
2023-05-06T07:48:04.521Z,3.19
2023-05-06T07:49:04.601Z,2.14
2023-05-06T07:50:04.611Z,3.46
2023-05-06T07:51:03.942Z,2.73
2023-05-06T07:52:04.074Z,3.66
2023-05-06T07:53:04.341Z,2.92
2023-05-06T07:54:04.681Z,2.48
2023-05-06T07:57:04.619Z,2.56
2023-05-06T07:58:04.031Z,3.16
2023-05-06T07:59:04.089Z,2.95
2023-05-06T08:00:04.780Z,3.73
2023-05-06T08:01:04.406Z,2.6
2023-05-06T08:03:03.826Z,2.36
2023-05-06T08:04:04.371Z,1.93
2023-05-06T08:05:04.675Z,2.66
2023-05-06T08:06:03.780Z,2.16
2023-05-06T08:07:04.210Z,2.56
2023-05-06T08:08:04.356Z,3.16
2023-05-06T08:09:04.798Z,2.46
2023-05-06T08:10:04.084Z,1.91
2023-05-06T08:11:04.299Z,2.38
2023-05-06T08:12:04.788Z,2.92
2023-05-06T08:13:03.921Z,2.16
2023-05-06T08:14:04.097Z,2.79
2023-05-06T08:15:04.632Z,2.83
2023-05-06T08:16:03.926Z,2.64
2023-05-06T08:17:04.124Z,2.57
2023-05-06T08:18:22.661Z,2.45
2023-05-06T08:19:04.633Z,1.8
2023-05-06T08:20:03.913Z,2.11
2023-05-06T08:21:04.336Z,2.11
2023-05-06T08:22:04.333Z,1.65
2023-05-06T08:23:04.720Z,2.37
2023-05-06T08:27:04.077Z,3.21
2023-05-06T08:28:03.895Z,2.37
2023-05-06T08:29:04.347Z,3.72
2023-05-06T08:30:04.635Z,2.09
2023-05-06T08:31:04.069Z,2.52
2023-05-06T08:32:04.274Z,2.87
2023-05-06T08:33:04.577Z,2.17
2023-05-06T08:34:04.733Z,2.07
2023-05-06T08:35:04.140Z,2.37
2023-05-06T08:36:04.171Z,2.36
2023-05-06T08:37:04.631Z,2.57
2023-05-06T08:38:04.795Z,2.55
2023-05-06T08:39:04.267Z,2.76
2023-05-06T08:40:04.266Z,2.19
2023-05-06T08:41:04.715Z,1.79
2023-05-06T08:42:03.918Z,2.14
2023-05-06T08:43:04.005Z,2.46
2023-05-06T08:44:04.677Z,1.91
2023-05-06T08:45:04.927Z,2.71
2023-05-06T08:48:04.576Z,1.41
2023-05-06T08:49:04.434Z,1.09
2023-05-06T08:51:04.065Z,1.55
2023-05-06T08:52:04.203Z,4.02
2023-05-06T08:53:04.588Z,2.11
2023-05-06T08:54:04.810Z,2.19
2023-05-06T08:55:04.339Z,2.19
2023-05-06T08:56:04.548Z,1.65
2023-05-06T08:57:04.595Z,3.54
2023-05-06T08:58:03.722Z,2.04
2023-05-06T08:59:03.974Z,2.47
2023-05-06T09:00:04.156Z,2.78
2023-05-06T09:01:04.441Z,2.14
2023-05-06T09:02:04.759Z,3.36
2023-05-06T09:03:04.964Z,1.99
2023-05-06T09:04:03.967Z,2.58
2023-05-06T09:05:04.874Z,2.72
2023-05-06T09:06:04.266Z,1.39
2023-05-06T09:07:04.440Z,2.24
2023-05-06T09:08:04.837Z,2.91
2023-05-06T09:09:03.893Z,1.8
2023-05-06T09:13:04.065Z,1.74
2023-05-06T09:14:04.270Z,1.85
2023-05-06T09:15:04.542Z,1.99
2023-05-06T09:16:04.127Z,1.93
2023-05-06T09:17:04.518Z,2.46
2023-05-06T09:18:04.508Z,1.96
2023-05-06T09:19:04.838Z,2.37
2023-05-06T09:20:03.966Z,2.06
2023-05-06T09:21:04.156Z,2.59
2023-05-06T09:22:04.524Z,2.5
2023-05-06T09:23:04.773Z,2.36
2023-05-06T09:24:03.676Z,2.26
2023-05-06T09:25:04.208Z,2.23
2023-05-06T09:26:04.301Z,2.65
2023-05-06T09:27:04.581Z,1.68
2023-05-06T09:28:03.679Z,1.68
2023-05-06T09:29:04.221Z,1.49
2023-05-06T09:30:04.582Z,1.49
2023-05-06T09:31:04.693Z,2.14
2023-05-06T09:32:04.709Z,2.94
2023-05-06T09:33:04.078Z,1.7
2023-05-06T09:34:04.247Z,2.29
2023-05-06T09:35:04.514Z,1.65
2023-05-06T09:36:04.616Z,1.99
2023-05-06T09:37:04.910Z,2.74
2023-05-06T09:38:05.898Z,1.86
2023-05-06T09:39:04.519Z,1.44
2023-05-06T09:40:04.892Z,1.94
2023-05-06T09:41:03.839Z,1.95
2023-05-06T09:42:04.032Z,1.41
2023-05-06T09:43:04.380Z,2.34
2023-05-06T09:44:04.637Z,1.41
2023-05-06T09:45:04.017Z,1.66
2023-05-06T09:46:04.446Z,1.71
2023-05-06T09:47:04.850Z,1.51
2023-05-06T09:50:04.861Z,1.78
2023-05-06T09:51:04.518Z,1.83
2023-05-06T09:53:04.341Z,2.22
2023-05-06T09:54:04.208Z,1.43
2023-05-06T09:55:04.295Z,1.19
2023-05-06T09:56:03.888Z,1.28
2023-05-06T09:57:04.345Z,1.36
2023-05-06T09:58:04.721Z,1.3
2023-05-06T10:01:04.190Z,1.42
2023-05-06T10:02:04.345Z,0.93
2023-05-06T10:03:04.957Z,1.52
2023-05-06T10:04:04.025Z,1.04
2023-05-06T10:05:04.785Z,1.46
2023-05-06T10:06:04.243Z,1.62
2023-05-06T10:07:04.666Z,1.64
2023-05-06T10:11:04.450Z,1.14
2023-05-06T10:12:04.798Z,1.42
2023-05-06T10:13:03.918Z,1.39
2023-05-06T10:14:04.366Z,1.35
2023-05-06T10:15:04.236Z,1.59
2023-05-06T10:16:04.547Z,1.05
2023-05-06T10:17:04.756Z,1.25
2023-05-06T10:18:04.078Z,1.81
2023-05-06T10:19:04.127Z,1.42
2023-05-06T10:20:04.605Z,1.12
2023-05-06T10:21:03.932Z,1.08
2023-05-06T10:22:05.630Z,1.06
2023-05-06T10:23:04.166Z,1.24
2023-05-06T10:24:04.677Z,1.31
2023-05-06T10:25:04.049Z,1.46
2023-05-06T10:26:04.358Z,0.93
2023-05-06T10:27:04.495Z,0.72
2023-05-06T10:28:05.575Z,1.09
2023-05-06T10:29:04.778Z,1.01
2023-05-06T10:30:04.063Z,1.04
2023-05-06T10:34:04.652Z,1.56
2023-05-06T10:35:04.868Z,1.12
2023-05-06T10:36:04.011Z,1.17
2023-05-06T10:37:04.311Z,0.49
2023-05-06T10:38:04.377Z,1
2023-05-06T10:39:04.612Z,1.75
2023-05-06T10:40:04.169Z,1.07
2023-05-06T10:41:04.386Z,1.07
2023-05-06T10:42:04.688Z,0.89
2023-05-06T10:43:03.700Z,1.01
2023-05-06T10:44:03.997Z,1.01
2023-05-06T10:45:04.718Z,1.08
2023-05-06T10:46:04.018Z,1.21
2023-05-06T10:47:04.091Z,1.55
2023-05-06T10:48:04.475Z,1.15
2023-05-06T10:49:04.851Z,0.92
2023-05-06T10:50:03.772Z,1.35
2023-05-06T10:51:04.161Z,1.09
2023-05-06T10:52:04.284Z,1.11
2023-05-06T10:53:04.572Z,1.07
2023-05-06T10:57:04.759Z,1.48
2023-05-06T10:58:03.826Z,1.18
2023-05-06T10:59:04.122Z,1.27
2023-05-06T11:00:04.512Z,1.01
2023-05-06T11:01:04.085Z,1
2023-05-06T11:02:04.245Z,0.95
2023-05-06T11:03:04.723Z,0.57
2023-05-06T11:05:03.927Z,0.51
2023-05-06T11:06:04.196Z,1.05
2023-05-06T11:07:04.463Z,0.84
2023-05-06T11:08:04.629Z,0.73
2023-05-06T11:09:03.978Z,0.79
2023-05-06T11:10:04.548Z,0.71
2023-05-06T11:11:04.051Z,0.61
2023-05-06T11:12:04.256Z,0.55
2023-05-06T11:13:04.406Z,0.78
2023-05-06T11:14:04.714Z,0.98
2023-05-06T11:17:04.574Z,1.09
2023-05-06T11:18:04.635Z,1.01
2023-05-06T11:19:04.703Z,1.14
2023-05-06T11:20:04.048Z,0.46
2023-05-06T11:23:04.064Z,0.74
2023-05-06T11:24:04.114Z,0.58
2023-05-06T11:25:04.672Z,0.44
2023-05-06T11:26:03.985Z,0.64
2023-05-06T11:27:04.316Z,0.89
2023-05-06T11:28:04.610Z,0.98
2023-05-06T11:29:04.781Z,0.48
2023-05-06T11:30:04.101Z,0.95
2023-05-06T11:31:04.440Z,0.48
2023-05-06T11:32:04.435Z,0.64
2023-05-06T11:33:07.383Z,0.74
2023-05-06T11:34:03.955Z,0.64
2023-05-06T11:35:04.467Z,0.61
2023-05-06T11:36:04.537Z,0.79
2023-05-06T11:37:05.096Z,0.42
2023-05-06T11:38:03.917Z,1.04
2023-05-06T11:39:06.824Z,0.74
2023-05-06T11:41:04.720Z,0.7
2023-05-06T11:42:03.855Z,0.93
2023-05-06T11:43:04.302Z,0.98
2023-05-06T11:44:04.417Z,1.02
2023-05-06T11:45:04.648Z,0.86
2023-05-06T11:46:03.966Z,1.01
2023-05-06T11:47:04.198Z,0.97
2023-05-06T11:48:04.571Z,0.75
2023-05-06T11:49:04.763Z,0.81
2023-05-06T11:50:03.880Z,0.71
2023-05-06T11:51:04.104Z,0.87
2023-05-06T11:52:04.667Z,1.01
2023-05-06T11:53:04.768Z,0.65
2023-05-06T11:54:03.960Z,0.87
2023-05-06T11:55:04.112Z,0.82
2023-05-06T11:56:04.289Z,1.18
2023-05-06T11:57:04.434Z,0.89
2023-05-06T11:59:04.039Z,1.15
2023-05-06T12:00:04.500Z,0.96
2023-05-06T12:01:03.836Z,0.96
2023-05-06T12:02:04.126Z,1.1
2023-05-06T12:03:04.663Z,0.54
2023-05-06T12:04:05.712Z,0.82
2023-05-06T12:05:04.275Z,0.82
2023-05-06T12:06:04.685Z,0.76
2023-05-06T12:07:04.599Z,1.14
2023-05-06T12:10:03.963Z,0.86
2023-05-06T12:11:04.165Z,0.66
2023-05-06T12:12:04.478Z,0.39
2023-05-06T12:13:04.016Z,0.89
2023-05-06T12:14:04.153Z,0.62
2023-05-06T12:15:04.380Z,0.41
2023-05-06T12:16:04.664Z,0.49
2023-05-06T12:17:03.835Z,0.57
2023-05-06T12:18:04.167Z,0.76
2023-05-06T12:19:04.586Z,0.96
2023-05-06T12:20:05.078Z,1.12
2023-05-06T12:21:04.158Z,0.68
2023-05-06T12:22:04.289Z,0.51
2023-05-06T12:23:04.528Z,0.66
2023-05-06T12:24:04.863Z,0.49
2023-05-06T12:25:04.166Z,0.75
2023-05-06T12:26:04.483Z,0.87
2023-05-06T12:27:04.705Z,0.54
2023-05-06T12:28:03.588Z,0.55
2023-05-06T12:29:04.362Z,0.42
2023-05-06T12:30:04.397Z,0.85
2023-05-06T12:31:04.575Z,1.32
2023-05-06T12:32:05.010Z,0.69
2023-05-06T12:33:03.995Z,0.62
2023-05-06T12:34:04.528Z,0.56
2023-05-06T12:35:04.549Z,0.36
2023-05-06T12:36:03.950Z,0.44
2023-05-06T12:37:03.954Z,0.44
2023-05-06T12:38:04.923Z,0.78
2023-05-06T12:39:03.938Z,0.53
2023-05-06T12:40:04.312Z,0.62
2023-05-06T12:41:04.774Z,0.51
2023-05-06T12:42:03.957Z,0.5
2023-05-06T12:43:04.166Z,0.42
2023-05-06T12:44:04.695Z,0.65
2023-05-06T12:45:04.814Z,0.52
2023-05-06T12:46:04.153Z,0.38
2023-05-06T12:47:04.186Z,0.44
2023-05-06T12:48:04.679Z,0.26
2023-05-06T12:49:04.743Z,0.46
2023-05-06T12:50:03.979Z,0.49
2023-05-06T12:51:04.394Z,0.23
2023-05-06T12:52:04.492Z,0.62
2023-05-06T12:53:04.009Z,0.58
2023-05-06T12:54:04.245Z,0.34
2023-05-06T12:55:04.813Z,0.34
2023-05-06T13:00:04.033Z,0.49
2023-05-06T13:01:04.395Z,0.34
2023-05-06T13:02:04.593Z,0.39
2023-05-06T13:03:04.703Z,0.48
2023-05-06T13:04:04.055Z,0.94
2023-05-06T13:05:04.277Z,0.4
2023-05-06T13:06:04.399Z,0.38
2023-05-06T13:07:04.692Z,0.47
2023-05-06T13:08:04.901Z,0.45
2023-05-06T13:09:04.424Z,0.72
2023-05-06T13:10:04.458Z,0.45
2023-05-06T13:13:04.402Z,0.41
2023-05-06T13:14:04.766Z,0.33
2023-05-06T13:15:04.133Z,0.26
2023-05-06T13:16:04.459Z,0.38
2023-05-06T13:17:05.076Z,0.26
2023-05-06T13:18:04.143Z,0.72
2023-05-06T13:19:04.251Z,0.51
2023-05-06T13:20:07.336Z,0.46
2023-05-06T13:21:03.949Z,0.45
2023-05-06T13:22:04.350Z,1.28
2023-05-06T13:23:04.554Z,0.43
2023-05-06T13:24:04.648Z,0.43
2023-05-06T13:25:04.199Z,0.9
2023-05-06T13:26:05.510Z,0.9
2023-05-06T13:27:04.643Z,0.86
2023-05-06T13:29:04.062Z,0.31
2023-05-06T13:30:04.503Z,0.46
2023-05-06T13:31:04.905Z,0.45
2023-05-06T13:32:05.764Z,0.25
2023-05-06T13:33:04.406Z,0.34
2023-05-06T13:34:04.582Z,0.38
2023-05-06T13:35:04.876Z,0.48
2023-05-06T13:36:05.326Z,0.33
2023-05-06T13:37:04.666Z,0.33
2023-05-06T13:39:04.283Z,0.35
2023-05-06T13:40:04.589Z,0.44
2023-05-06T13:41:04.602Z,0.58
2023-05-06T13:42:04.933Z,0.59
2023-05-06T13:43:04.278Z,0.78
2023-05-06T13:44:04.430Z,0.36
2023-05-06T13:45:04.759Z,0.87
2023-05-06T13:46:03.875Z,0.26
2023-05-06T13:47:04.274Z,0.32
2023-05-06T13:48:04.453Z,0.18
2023-05-06T13:49:04.677Z,3.19
2023-05-06T13:50:04.230Z,0.24
2023-05-06T13:51:04.357Z,0.71
2023-05-06T13:52:06.334Z,0.32
2023-05-06T13:53:04.703Z,0.44
2023-05-06T13:54:04.017Z,0.49
2023-05-06T13:55:04.394Z,0.47
2023-05-06T13:56:04.612Z,0.49
2023-05-06T13:57:04.050Z,0.46
2023-05-06T13:58:04.391Z,0.36
2023-05-06T13:59:04.531Z,0.28
2023-05-06T14:00:05.251Z,0.29
2023-05-06T14:02:05.674Z,0.37
2023-05-06T14:03:04.606Z,0.34
2023-05-06T14:04:04.750Z,0.49
2023-05-06T14:05:03.981Z,0.65
2023-05-06T14:06:04.154Z,0.4
2023-05-06T14:08:04.586Z,0.48
2023-05-06T14:09:04.890Z,0.55
2023-05-06T14:10:04.958Z,0.72
2023-05-06T14:11:04.350Z,0.5
2023-05-06T14:13:09.035Z,0.26
2023-05-06T14:14:04.049Z,0.52
2023-05-06T14:15:04.277Z,0.34
2023-05-06T14:16:04.858Z,0.54
2023-05-06T14:17:04.045Z,0.21
2023-05-06T14:18:04.525Z,0.76
2023-05-06T14:19:04.245Z,0.47
2023-05-06T14:20:04.814Z,0.54
2023-05-06T14:21:03.922Z,0.33
2023-05-06T14:22:04.546Z,0.42
2023-05-06T14:23:04.711Z,0.29
2023-05-06T14:24:05.701Z,0.89
2023-05-06T14:25:04.479Z,0.28
2023-05-06T14:26:04.486Z,0.4
2023-05-06T14:27:05.005Z,0.46
2023-05-06T14:28:04.152Z,0.61
2023-05-06T14:29:04.214Z,0.52
2023-05-06T14:30:05.928Z,0.29
2023-05-06T14:31:04.488Z,0.27
2023-05-06T14:32:04.896Z,0.41
2023-05-06T14:33:03.819Z,0.27
2023-05-06T14:34:04.134Z,0.37
2023-05-06T14:35:04.554Z,0.49
2023-05-06T14:36:04.877Z,0.63
2023-05-06T14:37:04.221Z,0.59
2023-05-06T14:38:04.166Z,0.51
2023-05-06T14:39:04.542Z,0.58
2023-05-06T14:40:04.637Z,0.5
2023-05-06T14:41:04.133Z,0.38
2023-05-06T14:42:04.349Z,0.76
2023-05-06T14:43:04.385Z,0.52
2023-05-06T14:44:04.699Z,0.53
2023-05-06T14:45:04.121Z,0.54
2023-05-06T14:46:04.251Z,0.49
2023-05-06T14:47:04.563Z,0.49
2023-05-06T14:48:04.783Z,0.39
2023-05-06T14:50:04.480Z,0.32
2023-05-06T14:51:04.055Z,0.56
2023-05-06T14:52:04.519Z,0.51
2023-05-06T14:53:06.235Z,0.51
2023-05-06T14:54:04.043Z,0.56
2023-05-06T14:55:04.242Z,0.44
2023-05-06T14:56:04.645Z,0.5
2023-05-06T14:57:04.817Z,0.31
2023-05-06T14:58:03.949Z,0.67
2023-05-06T14:59:06.316Z,0.72
2023-05-06T15:01:04.991Z,0.53
2023-05-06T15:02:04.031Z,0.45
2023-05-06T15:03:04.469Z,0.38
2023-05-06T15:04:04.560Z,0.62